createdAt,value
2023-02-24T00:01:51.544Z,48.20
2023-02-24T00:04:20.645Z,44.20
2023-02-24T00:06:48.258Z,48.90
2023-02-24T00:09:16.812Z,50.00
2023-02-24T00:11:45.442Z,50.03
2023-02-24T00:14:15.910Z,46.87
2023-02-24T00:16:44.517Z,50.37
2023-02-24T00:19:13.434Z,49.67
2023-02-24T00:21:40.898Z,51.53
2023-02-24T00:24:08.113Z,46.47
2023-02-24T00:26:35.492Z,43.50
2023-02-24T00:29:04.934Z,45.20
2023-02-24T00:31:32.059Z,45.30
2023-02-24T00:34:00.370Z,41.17
2023-02-24T00:36:29.793Z,47.00
2023-02-24T00:38:58.010Z,47.50
2023-02-24T00:41:29.271Z,49.20
2023-02-24T00:43:57.588Z,48.10
2023-02-24T00:46:26.057Z,50.87
2023-02-24T00:48:55.158Z,49.37
2023-02-24T00:51:23.523Z,49.27
2023-02-24T00:53:51.880Z,50.73
2023-02-24T00:56:19.034Z,47.73
2023-02-24T00:58:46.220Z,48.73
2023-02-24T01:01:14.938Z,51.97
2023-02-24T01:03:42.397Z,49.17
2023-02-24T01:06:09.877Z,46.03
2023-02-24T01:08:40.100Z,49.93
2023-02-24T01:11:26.379Z,45.27
2023-02-24T01:13:53.526Z,41.17
2023-02-24T01:16:20.657Z,39.60
2023-02-24T01:18:48.058Z,39.63
2023-02-24T01:21:19.823Z,36.07
2023-02-24T01:23:50.509Z,36.60
2023-02-24T01:26:18.220Z,37.80
2023-02-24T01:28:48.760Z,36.60
2023-02-24T01:31:18.475Z,38.70
2023-02-24T01:33:45.856Z,37.10
2023-02-24T01:36:14.822Z,33.47
2023-02-24T01:38:42.831Z,30.20
2023-02-24T01:41:11.563Z,29.07
2023-02-24T01:44:06.018Z,29.30
2023-02-24T01:46:34.105Z,27.90
2023-02-24T01:49:08.291Z,25.23
2023-02-24T01:51:37.548Z,27.87
2023-02-24T01:54:07.105Z,24.13
2023-02-24T01:56:34.353Z,23.60
2023-02-24T01:59:02.562Z,22.33
2023-02-24T02:01:30.358Z,20.63
2023-02-24T02:04:06.040Z,22.30
2023-02-24T02:06:33.242Z,26.63
2023-02-24T02:09:00.462Z,20.03
2023-02-24T02:11:27.712Z,20.17
2023-02-24T02:13:56.764Z,18.17
2023-02-24T02:16:27.051Z,17.23
2023-02-24T02:19:12.784Z,17.53
2023-02-24T02:21:58.983Z,17.13
2023-02-24T02:24:40.747Z,18.20
2023-02-24T02:27:11.390Z,15.90
2023-02-24T02:29:47.574Z,15.63
2023-02-24T02:32:27.157Z,16.10
2023-02-24T02:34:54.308Z,16.23
2023-02-24T02:37:24.547Z,13.83
2023-02-24T02:39:52.510Z,14.23
2023-02-24T02:42:30.403Z,12.37
2023-02-24T02:45:07.665Z,16.43
2023-02-24T02:47:54.013Z,15.43
2023-02-24T02:50:32.355Z,15.37
2023-02-24T02:53:04.307Z,13.50
2023-02-24T02:55:39.594Z,14.63
2023-02-24T02:58:09.167Z,14.07
2023-02-24T03:00:42.034Z,15.40
2023-02-24T03:03:14.614Z,15.83
2023-02-24T03:05:50.115Z,13.97
2023-02-24T03:08:18.980Z,12.53
2023-02-24T03:10:50.495Z,15.27
2023-02-24T03:13:19.807Z,13.33
2023-02-24T03:15:47.859Z,16.83
2023-02-24T03:18:18.513Z,11.30
2023-02-24T03:20:51.882Z,9.93
2023-02-24T03:23:21.041Z,10.27
2023-02-24T03:25:53.219Z,9.87
2023-02-24T03:28:24.854Z,9.50
2023-02-24T03:31:14.988Z,10.57
2023-02-24T03:33:44.690Z,9.23
2023-02-24T03:36:14.931Z,9.50
2023-02-24T03:38:43.181Z,9.40
2023-02-24T03:41:13.403Z,11.43
2023-02-24T03:43:44.945Z,10.27
2023-02-24T03:46:12.462Z,13.23
2023-02-24T03:48:44.747Z,12.10
2023-02-24T03:51:16.282Z,11.30
2023-02-24T03:53:53.262Z,11.60
2023-02-24T03:56:29.226Z,14.37
2023-02-24T03:59:15.423Z,12.27
2023-02-24T04:01:47.243Z,10.53
2023-02-24T04:04:14.249Z,14.63
2023-02-24T04:06:47.076Z,10.80
2023-02-24T04:09:33.217Z,11.97
2023-02-24T04:12:00.358Z,9.07
2023-02-24T04:14:50.571Z,7.37
2023-02-24T04:17:22.685Z,10.07
2023-02-24T04:19:51.272Z,7.70
2023-02-24T04:22:23.539Z,10.27
2023-02-24T04:24:52.671Z,10.80
2023-02-24T04:27:20.528Z,8.60
2023-02-24T04:29:50.614Z,10.70
2023-02-24T04:32:19.326Z,11.53
2023-02-24T04:34:46.928Z,8.77
2023-02-24T04:37:14.087Z,10.23
2023-02-24T04:39:41.347Z,9.97
2023-02-24T04:42:08.531Z,9.50
2023-02-24T04:44:36.084Z,9.23
2023-02-24T04:47:03.847Z,9.40
2023-02-24T04:49:31.003Z,10.17
2023-02-24T04:51:58.120Z,11.97
2023-02-24T04:54:25.620Z,11.10
2023-02-24T04:56:52.729Z,12.67
2023-02-24T04:59:20.533Z,12.80
2023-02-24T05:01:51.619Z,12.70
2023-02-24T05:04:19.016Z,12.90
2023-02-24T05:06:46.656Z,11.97
2023-02-24T05:09:17.966Z,12.40
2023-02-24T05:11:45.979Z,14.03
2023-02-24T05:14:17.550Z,13.50
2023-02-24T05:16:45.791Z,13.73
2023-02-24T05:19:32.283Z,11.53
2023-02-24T05:21:59.379Z,13.27
2023-02-24T05:24:28.598Z,13.17
2023-02-24T05:26:59.435Z,14.90
2023-02-24T05:29:28.192Z,12.17
2023-02-24T05:31:59.937Z,15.40
2023-02-24T05:34:31.020Z,17.07
2023-02-24T05:36:59.258Z,12.50
2023-02-24T05:39:26.403Z,12.57
2023-02-24T05:41:54.766Z,11.57
2023-02-24T05:44:22.761Z,10.00
2023-02-24T05:46:51.251Z,10.07
2023-02-24T05:49:23.326Z,8.30
2023-02-24T05:51:54.857Z,7.87
2023-02-24T05:54:26.074Z,8.77
2023-02-24T05:56:53.193Z,6.27
2023-02-24T05:59:21.530Z,5.77
2023-02-24T06:01:49.304Z,7.40
2023-02-24T06:04:43.307Z,6.23
2023-02-24T06:07:18.978Z,3.80
2023-02-24T06:09:50.055Z,6.13
2023-02-24T06:12:18.534Z,6.03
2023-02-24T06:14:45.697Z,6.53
2023-02-24T06:17:15.041Z,5.33
2023-02-24T06:19:43.365Z,4.90
2023-02-24T06:22:13.496Z,5.63
2023-02-24T06:24:44.304Z,3.60
2023-02-24T06:27:18.628Z,2.97
2023-02-24T06:29:50.385Z,2.67
2023-02-24T06:32:18.550Z,2.67
2023-02-24T06:34:45.802Z,1.87
2023-02-24T06:37:14.234Z,3.47
2023-02-24T06:39:41.626Z,3.60
2023-02-24T06:42:08.915Z,2.83
2023-02-24T06:44:38.284Z,4.00
2023-02-24T06:47:07.053Z,5.33
2023-02-24T06:49:34.556Z,4.00
2023-02-24T06:52:01.748Z,4.43
2023-02-24T06:54:30.446Z,5.47
2023-02-24T06:56:59.104Z,5.20
2023-02-24T06:59:29.757Z,3.53
2023-02-24T07:01:58.232Z,8.13
2023-02-24T07:04:28.251Z,3.90
2023-02-24T07:06:57.209Z,4.80
2023-02-24T07:09:25.613Z,8.17
2023-02-24T07:11:53.480Z,4.03
2023-02-24T07:14:22.419Z,5.97
2023-02-24T07:16:54.063Z,5.63
2023-02-24T07:19:23.417Z,4.97
2023-02-24T07:21:52.457Z,6.83
2023-02-24T07:24:32.900Z,3.20
2023-02-24T07:27:01.420Z,5.13
2023-02-24T07:29:30.181Z,2.73
2023-02-24T07:32:03.383Z,6.83
2023-02-24T07:34:30.951Z,13.37
2023-02-24T07:36:58.370Z,5.97
2023-02-24T07:39:25.849Z,4.93
2023-02-24T07:41:59.328Z,5.30
2023-02-24T07:44:26.692Z,3.73
2023-02-24T07:46:54.973Z,6.90
2023-02-24T07:49:25.856Z,5.37
2023-02-24T07:51:55.240Z,6.00
2023-02-24T07:54:23.353Z,7.63
2023-02-24T07:56:57.099Z,6.27
2023-02-24T07:59:25.570Z,7.40
2023-02-24T08:01:55.617Z,6.90
2023-02-24T08:04:25.333Z,7.00
2023-02-24T08:06:55.819Z,7.37
2023-02-24T08:09:45.944Z,5.43
2023-02-24T08:12:17.930Z,3.33
2023-02-24T08:14:50.513Z,9.20
2023-02-24T08:17:21.962Z,7.03
2023-02-24T08:19:49.548Z,5.10
2023-02-24T08:22:20.148Z,7.23
2023-02-24T08:24:52.604Z,5.57
2023-02-24T08:27:20.825Z,7.80
2023-02-24T08:29:58.414Z,5.80
2023-02-24T08:32:25.613Z,6.60
2023-02-24T08:35:02.648Z,5.70
2023-02-24T08:37:39.441Z,8.33
2023-02-24T08:40:09.019Z,7.33
2023-02-24T08:42:36.099Z,7.67
2023-02-24T08:45:03.247Z,8.83
2023-02-24T08:47:36.002Z,10.53
2023-02-24T08:50:07.048Z,8.63
2023-02-24T08:52:34.823Z,8.57
2023-02-24T08:55:01.858Z,7.07
2023-02-24T08:57:28.991Z,4.83
2023-02-24T08:59:59.147Z,10.40
2023-02-24T09:02:29.482Z,4.37
2023-02-24T09:05:03.631Z,4.87
2023-02-24T09:07:35.759Z,6.57
2023-02-24T09:10:11.402Z,11.50
2023-02-24T09:12:42.080Z,8.77
2023-02-24T09:15:10.325Z,6.10
2023-02-24T09:17:40.458Z,4.77
2023-02-24T09:20:29.541Z,5.13
2023-02-24T09:23:00.796Z,7.73
2023-02-24T09:25:40.709Z,6.80
2023-02-24T09:28:18.674Z,9.80
2023-02-24T09:30:53.267Z,6.73
2023-02-24T09:33:23.384Z,5.77
2023-02-24T09:35:50.486Z,8.07
2023-02-24T09:38:19.224Z,5.57
2023-02-24T09:40:50.608Z,7.40
2023-02-24T09:43:19.748Z,5.90
2023-02-24T09:46:14.452Z,7.43
2023-02-24T09:48:44.076Z,10.57
2023-02-24T09:51:21.801Z,8.53
2023-02-24T09:53:52.668Z,4.83
2023-02-24T09:56:42.385Z,6.60
2023-02-24T09:59:12.802Z,6.43
2023-02-24T10:02:02.132Z,5.20
2023-02-24T10:04:29.372Z,7.03
2023-02-24T10:07:02.922Z,6.70
2023-02-24T10:09:38.952Z,7.27
2023-02-24T10:12:06.092Z,8.50
2023-02-24T10:15:14.860Z,5.43
2023-02-24T10:17:47.188Z,7.93
2023-02-24T10:20:31.040Z,4.90
2023-02-24T10:23:05.791Z,4.67
2023-02-24T10:25:41.994Z,6.30
2023-02-24T10:28:20.048Z,5.17
2023-02-24T10:30:47.248Z,7.90
2023-02-24T10:33:20.505Z,6.60
2023-02-24T10:35:47.982Z,7.10
2023-02-24T10:38:15.564Z,5.87
2023-02-24T10:40:56.462Z,4.53
2023-02-24T10:43:31.542Z,7.77
2023-02-24T10:46:17.455Z,8.43
2023-02-24T10:48:51.779Z,7.80
2023-02-24T10:51:22.204Z,7.37
2023-02-24T10:54:09.819Z,5.97
2023-02-24T10:56:55.469Z,8.53
2023-02-24T10:59:52.023Z,11.17
2023-02-24T11:02:29.422Z,7.13
2023-02-24T11:05:01.725Z,7.87
2023-02-24T11:07:53.734Z,6.40
2023-02-24T11:10:42.822Z,7.93
2023-02-24T11:13:34.217Z,7.03
2023-02-24T11:16:20.558Z,7.53
2023-02-24T11:18:50.162Z,5.93
2023-02-24T11:21:17.812Z,5.17
2023-02-24T11:23:53.460Z,6.73
2023-02-24T11:26:26.463Z,6.67
2023-02-24T11:29:03.890Z,5.10
2023-02-24T11:31:40.286Z,3.63
2023-02-24T11:34:16.792Z,4.87
2023-02-24T11:36:50.544Z,6.60
2023-02-24T11:39:30.930Z,4.73
2023-02-24T11:41:59.854Z,5.50
2023-02-24T11:44:31.314Z,6.27
2023-02-24T11:47:01.254Z,4.63
2023-02-24T11:49:34.018Z,5.33
2023-02-24T11:52:04.544Z,3.30
2023-02-24T11:54:39.176Z,4.77
2023-02-24T11:57:11.676Z,4.93
2023-02-24T11:59:42.411Z,4.80
2023-02-24T12:02:23.257Z,3.83
2023-02-24T12:04:50.941Z,4.23
2023-02-24T12:07:18.004Z,4.47
2023-02-24T12:09:47.201Z,5.57
2023-02-24T12:12:17.118Z,6.03
2023-02-24T12:14:54.578Z,4.07
2023-02-24T12:17:26.986Z,3.10
2023-02-24T12:20:06.203Z,4.77
2023-02-24T12:22:46.003Z,4.20
2023-02-24T12:25:14.877Z,5.73
2023-02-24T12:27:48.234Z,7.03
2023-02-24T12:30:22.926Z,5.07
2023-02-24T12:33:00.368Z,4.87
2023-02-24T12:35:30.431Z,5.50
2023-02-24T12:38:00.694Z,4.17
2023-02-24T12:40:39.054Z,4.77
2023-02-24T12:43:12.365Z,4.03
2023-02-24T12:45:45.565Z,5.90
2023-02-24T12:48:19.637Z,4.70
2023-02-24T12:50:58.835Z,6.10
2023-02-24T12:53:25.871Z,4.87
2023-02-24T12:55:52.967Z,7.73
2023-02-24T12:58:40.425Z,5.03
2023-02-24T13:01:10.553Z,6.47
2023-02-24T13:03:46.423Z,6.27
2023-02-24T13:06:26.272Z,6.10
2023-02-24T13:08:53.318Z,4.33
2023-02-24T13:11:20.710Z,4.93
2023-02-24T13:14:00.110Z,5.93
2023-02-24T13:16:36.700Z,7.40
2023-02-24T13:19:06.856Z,5.70
2023-02-24T13:21:34.622Z,6.77
2023-02-24T13:24:02.895Z,7.77
2023-02-24T13:26:31.448Z,7.53
2023-02-24T13:29:03.510Z,6.60
2023-02-24T13:32:00.031Z,6.77
2023-02-24T13:34:31.313Z,5.97
2023-02-24T13:37:04.241Z,7.83
2023-02-24T13:39:35.924Z,9.73
2023-02-24T13:42:07.563Z,6.93
2023-02-24T13:44:34.983Z,6.97
2023-02-24T13:47:17.830Z,4.70
2023-02-24T13:49:59.515Z,8.33
2023-02-24T13:52:30.320Z,6.20
2023-02-24T13:55:06.653Z,8.13
2023-02-24T13:57:50.927Z,6.70
2023-02-24T14:00:21.835Z,6.60
2023-02-24T14:02:49.239Z,7.23
2023-02-24T14:05:25.164Z,6.50
2023-02-24T14:07:53.253Z,8.10
2023-02-24T14:10:23.121Z,5.93
2023-02-24T14:12:50.641Z,7.63
2023-02-24T14:15:22.574Z,6.77
2023-02-24T14:17:59.690Z,8.77
2023-02-24T14:20:27.352Z,7.27
2023-02-24T14:22:55.568Z,6.87
2023-02-24T14:25:23.456Z,6.00
2023-02-24T14:27:51.716Z,6.77
2023-02-24T14:30:21.865Z,7.40
2023-02-24T14:32:49.426Z,10.77
2023-02-24T14:35:20.270Z,10.27
2023-02-24T14:37:47.377Z,9.87
2023-02-24T14:40:15.702Z,11.70
2023-02-24T14:42:49.825Z,12.33
2023-02-24T14:45:18.237Z,11.33
2023-02-24T14:47:45.343Z,12.20
2023-02-24T14:50:16.635Z,9.77
2023-02-24T14:52:46.706Z,8.43
2023-02-24T14:55:18.216Z,8.57
2023-02-24T14:57:49.128Z,9.80
2023-02-24T15:00:22.022Z,9.53
2023-02-24T15:02:51.754Z,8.73
2023-02-24T15:05:19.168Z,9.00
2023-02-24T15:07:46.434Z,7.93
2023-02-24T15:10:24.977Z,7.07
2023-02-24T15:12:54.742Z,7.27
2023-02-24T15:15:29.827Z,6.27
2023-02-24T15:18:04.221Z,6.43
2023-02-24T15:20:33.695Z,7.37
2023-02-24T15:23:01.043Z,11.17
2023-02-24T15:25:40.645Z,6.60
2023-02-24T15:28:25.783Z,8.33
2023-02-24T15:31:00.636Z,6.17
2023-02-24T15:33:31.632Z,5.60
2023-02-24T15:35:59.582Z,7.27
2023-02-24T15:38:26.623Z,6.97
2023-02-24T15:40:57.804Z,6.23
2023-02-24T15:43:33.980Z,7.37
2023-02-24T15:46:01.090Z,7.43
2023-02-24T15:48:31.100Z,6.83
2023-02-24T15:51:03.576Z,7.07
2023-02-24T15:53:30.625Z,6.03
2023-02-24T15:55:57.733Z,7.13
2023-02-24T15:58:25.545Z,6.13
2023-02-24T16:00:54.213Z,6.70
2023-02-24T16:03:21.367Z,7.07
2023-02-24T16:05:48.493Z,6.53
2023-02-24T16:08:18.143Z,4.77
2023-02-24T16:10:45.420Z,4.87
2023-02-24T16:13:20.135Z,5.60
2023-02-24T16:15:48.101Z,4.93
2023-02-24T16:18:20.967Z,5.10
2023-02-24T16:20:54.229Z,6.27
2023-02-24T16:23:22.540Z,6.47
2023-02-24T16:25:50.871Z,5.13
2023-02-24T16:28:19.020Z,4.73
2023-02-24T16:30:46.497Z,6.57
2023-02-24T16:33:14.930Z,3.63
2023-02-24T16:35:43.390Z,4.20
2023-02-24T16:38:15.154Z,6.37
2023-02-24T16:40:46.554Z,4.93
2023-02-24T16:43:13.726Z,5.63
2023-02-24T16:45:41.253Z,5.40
2023-02-24T16:48:13.514Z,5.80
2023-02-24T16:50:41.470Z,6.77
2023-02-24T16:53:09.022Z,7.77
2023-02-24T16:55:36.116Z,9.27
2023-02-24T16:58:03.200Z,6.77
2023-02-24T17:00:30.256Z,6.33
2023-02-24T17:02:57.418Z,7.47
2023-02-24T17:05:25.517Z,6.83
2023-02-24T17:07:54.110Z,4.57
2023-02-24T17:10:21.827Z,5.47
2023-02-24T17:12:48.884Z,5.50
2023-02-24T17:15:17.495Z,5.10
2023-02-24T17:17:44.629Z,4.43
2023-02-24T17:20:12.672Z,5.67
2023-02-24T17:22:40.089Z,4.77
2023-02-24T17:25:07.435Z,5.53
2023-02-24T17:27:34.721Z,5.63
2023-02-24T17:30:01.823Z,4.33
2023-02-24T17:32:28.888Z,5.40
2023-02-24T17:34:56.248Z,4.80
2023-02-24T17:37:23.293Z,6.37
2023-02-24T17:39:50.356Z,6.00
2023-02-24T17:42:17.441Z,5.67
2023-02-24T17:44:45.280Z,5.40
2023-02-24T17:47:12.512Z,7.00
2023-02-24T17:49:39.718Z,6.23
2023-02-24T17:52:06.941Z,5.57
2023-02-24T17:54:34.033Z,6.03
2023-02-24T17:57:01.209Z,6.83
2023-02-24T17:59:28.293Z,7.57
2023-02-24T18:01:55.424Z,5.67
2023-02-24T18:04:22.494Z,5.43
2023-02-24T18:06:50.550Z,5.47
2023-02-24T18:09:17.656Z,4.17
2023-02-24T18:11:45.882Z,5.77
2023-02-24T18:14:13.389Z,3.70
2023-02-24T18:16:40.692Z,3.53
2023-02-24T18:19:07.772Z,3.07
2023-02-24T18:21:34.913Z,4.20
2023-02-24T18:24:02.569Z,4.07
2023-02-24T18:26:29.989Z,6.63
2023-02-24T18:28:58.670Z,3.87
2023-02-24T18:31:27.447Z,3.70
2023-02-24T18:33:55.940Z,7.50
2023-02-24T18:36:23.755Z,2.70
2023-02-24T18:38:51.014Z,3.60
2023-02-24T18:41:19.622Z,2.97
2023-02-24T18:43:50.811Z,2.90
2023-02-24T18:46:18.580Z,3.20
2023-02-24T18:48:46.035Z,2.63
2023-02-24T18:51:14.636Z,2.47
2023-02-24T18:53:41.761Z,4.13
2023-02-24T18:56:14.233Z,2.03
2023-02-24T18:58:41.267Z,2.80
2023-02-24T19:01:15.845Z,2.40
2023-02-24T19:03:43.527Z,1.80
2023-02-24T19:06:11.478Z,2.53
2023-02-24T19:08:39.031Z,2.40
2023-02-24T19:11:09.230Z,2.07
2023-02-24T19:13:36.383Z,2.87
2023-02-24T19:16:04.093Z,4.43
2023-02-24T19:18:31.343Z,2.33
2023-02-24T19:20:58.496Z,2.70
2023-02-24T19:23:25.568Z,2.47
2023-02-24T19:25:52.655Z,2.53
2023-02-24T19:28:19.712Z,2.67
2023-02-24T19:30:46.785Z,2.17
2023-02-24T19:33:14.051Z,2.40
2023-02-24T19:35:42.476Z,2.43
2023-02-24T19:38:17.826Z,2.80
2023-02-24T19:40:45.400Z,2.43
2023-02-24T19:43:12.539Z,1.90
2023-02-24T19:45:42.840Z,3.07
2023-02-24T19:48:10.741Z,2.27
2023-02-24T19:50:41.825Z,1.70
2023-02-24T19:53:09.316Z,2.13
2023-02-24T19:55:36.535Z,2.40
2023-02-24T19:58:03.785Z,2.17
2023-02-24T20:00:31.114Z,2.17
2023-02-24T20:02:58.301Z,2.00
2023-02-24T20:05:25.484Z,2.70
2023-02-24T20:07:52.583Z,2.13
2023-02-24T20:10:19.717Z,2.97
2023-02-24T20:12:46.901Z,2.60
2023-02-24T20:15:15.311Z,1.77
2023-02-24T20:17:42.430Z,3.30
2023-02-24T20:20:09.858Z,2.80
2023-02-24T20:22:36.953Z,2.87
2023-02-24T20:25:04.059Z,3.30
2023-02-24T20:27:32.602Z,2.60
2023-02-24T20:29:59.751Z,3.50
2023-02-24T20:32:27.333Z,2.67
2023-02-24T20:34:54.867Z,4.30
2023-02-24T20:37:21.953Z,4.17
2023-02-24T20:39:49.024Z,4.30
2023-02-24T20:42:16.141Z,8.40
2023-02-24T20:44:43.266Z,4.07
2023-02-24T20:47:10.342Z,4.00
2023-02-24T20:49:37.480Z,4.77
2023-02-24T20:52:04.695Z,4.50
2023-02-24T20:54:31.760Z,5.50
2023-02-24T20:56:58.882Z,4.90
2023-02-24T20:59:25.968Z,7.63
2023-02-24T21:01:53.285Z,6.20
2023-02-24T21:04:21.138Z,6.40
2023-02-24T21:06:48.588Z,4.43
2023-02-24T21:09:16.298Z,5.00
2023-02-24T21:11:43.543Z,4.37
2023-02-24T21:14:14.967Z,5.80
2023-02-24T21:16:42.028Z,6.40
2023-02-24T21:19:09.120Z,4.87
2023-02-24T21:21:36.183Z,5.57
2023-02-24T21:24:03.272Z,5.03
2023-02-24T21:26:30.334Z,4.77
2023-02-24T21:28:59.168Z,5.80
2023-02-24T21:31:26.842Z,5.83
2023-02-24T21:33:54.239Z,5.43
2023-02-24T21:36:24.406Z,6.73
2023-02-24T21:38:52.333Z,5.03
2023-02-24T21:41:19.536Z,5.87
2023-02-24T21:43:46.734Z,5.23
2023-02-24T21:46:15.665Z,5.90
2023-02-24T21:48:43.060Z,5.73
2023-02-24T21:51:11.894Z,6.93
2023-02-24T21:53:41.023Z,6.63
2023-02-24T21:56:16.106Z,7.27
2023-02-24T21:58:45.018Z,5.13
2023-02-24T22:01:13.790Z,6.43
2023-02-24T22:03:41.123Z,6.60
2023-02-24T22:06:09.654Z,7.93
2023-02-24T22:08:37.807Z,6.53
2023-02-24T22:11:05.811Z,5.77
2023-02-24T22:13:32.870Z,6.53
2023-02-24T22:16:02.029Z,5.73
2023-02-24T22:18:29.267Z,8.10
2023-02-24T22:20:56.482Z,6.70
2023-02-24T22:23:23.539Z,7.37
2023-02-24T22:25:50.605Z,6.13
2023-02-24T22:28:17.945Z,6.90
2023-02-24T22:30:45.044Z,5.80
2023-02-24T22:33:12.196Z,6.03
2023-02-24T22:35:39.232Z,6.77
2023-02-24T22:38:06.374Z,5.87
2023-02-24T22:40:33.521Z,6.27
2023-02-24T22:43:01.659Z,8.63
2023-02-24T22:45:28.809Z,5.03
2023-02-24T22:47:55.959Z,7.30
2023-02-24T22:50:23.071Z,6.27
2023-02-24T22:52:50.167Z,6.50
2023-02-24T22:55:18.540Z,6.70
2023-02-24T22:57:45.874Z,5.77
2023-02-24T23:00:20.006Z,5.80
2023-02-24T23:02:47.496Z,6.27
2023-02-24T23:05:15.146Z,6.30
2023-02-24T23:07:42.274Z,5.93
2023-02-24T23:10:09.986Z,5.57
2023-02-24T23:12:37.535Z,7.37
2023-02-24T23:15:04.790Z,7.13
2023-02-24T23:17:31.926Z,6.40
2023-02-24T23:19:59.012Z,5.77
2023-02-24T23:22:26.117Z,5.90
2023-02-24T23:24:53.281Z,8.37
2023-02-24T23:27:21.431Z,8.70
2023-02-24T23:29:48.727Z,5.67
2023-02-24T23:32:15.971Z,6.10
2023-02-24T23:34:43.260Z,7.67
2023-02-24T23:37:12.020Z,6.23
2023-02-24T23:39:39.117Z,6.30
2023-02-24T23:42:06.220Z,8.10
2023-02-24T23:44:36.648Z,4.90
2023-02-24T23:47:04.973Z,6.47
2023-02-24T23:49:47.337Z,6.10
2023-02-24T23:52:15.114Z,5.67
2023-02-24T23:54:42.179Z,6.17
2023-02-24T23:57:09.218Z,6.13
2023-02-24T23:59:37.599Z,4.57
